sensor_id;sensor_type;location;lat;lon;timestamp;P1;durP1;ratioP1;P2;durP2;ratioP2
57746;SDS011;43580;44.014;20.466;2023-04-25T00:00:38;21.00;;;12.50;;
57746;SDS011;43580;44.014;20.466;2023-04-25T00:03:04;17.70;;;11.55;;
57746;SDS011;43580;44.014;20.466;2023-04-25T00:05:31;22.05;;;14.75;;
57746;SDS011;43580;44.014;20.466;2023-04-25T00:07:57;16.40;;;11.07;;
57746;SDS011;43580;44.014;20.466;2023-04-25T00:10:23;11.85;;;8.55;;
57746;SDS011;43580;44.014;20.466;2023-04-25T00:12:52;11.32;;;8.13;;
57746;SDS011;43580;44.014;20.466;2023-04-25T00:15:20;14.10;;;8.88;;
57746;SDS011;43580;44.014;20.466;2023-04-25T00:17:49;10.70;;;8.50;;
57746;SDS011;43580;44.014;20.466;2023-04-25T00:20:18;14.02;;;9.68;;
57746;SDS011;43580;44.014;20.466;2023-04-25T00:22:44;13.38;;;8.73;;
57746;SDS011;43580;44.014;20.466;2023-04-25T00:25:10;16.08;;;10.00;;
57746;SDS011;43580;44.014;20.466;2023-04-25T00:27:36;13.30;;;9.02;;
57746;SDS011;43580;44.014;20.466;2023-04-25T00:30:04;13.60;;;8.60;;
57746;SDS011;43580;44.014;20.466;2023-04-25T00:32:30;13.02;;;8.15;;
57746;SDS011;43580;44.014;20.466;2023-04-25T00:34:56;14.00;;;8.38;;
57746;SDS011;43580;44.014;20.466;2023-04-25T00:37:23;10.70;;;7.60;;
57746;SDS011;43580;44.014;20.466;2023-04-25T00:39:49;18.63;;;10.13;;
57746;SDS011;43580;44.014;20.466;2023-04-25T00:42:21;9.40;;;6.18;;
57746;SDS011;43580;44.014;20.466;2023-04-25T00:44:49;14.38;;;9.60;;
57746;SDS011;43580;44.014;20.466;2023-04-25T00:47:15;7.32;;;5.03;;
57746;SDS011;43580;44.014;20.466;2023-04-25T00:49:41;10.52;;;6.57;;
57746;SDS011;43580;44.014;20.466;2023-04-25T00:52:10;14.70;;;8.15;;
57746;SDS011;43580;44.014;20.466;2023-04-25T00:54:39;13.43;;;9.10;;
57746;SDS011;43580;44.014;20.466;2023-04-25T00:57:08;15.40;;;8.98;;
57746;SDS011;43580;44.014;20.466;2023-04-25T00:59:34;15.48;;;9.57;;
57746;SDS011;43580;44.014;20.466;2023-04-25T01:02:01;20.60;;;10.45;;
57746;SDS011;43580;44.014;20.466;2023-04-25T01:04:27;17.25;;;11.40;;
57746;SDS011;43580;44.014;20.466;2023-04-25T01:06:54;25.27;;;13.27;;
57746;SDS011;43580;44.014;20.466;2023-04-25T01:09:20;26.60;;;14.15;;
57746;SDS011;43580;44.014;20.466;2023-04-25T01:11:47;25.35;;;12.73;;
57746;SDS011;43580;44.014;20.466;2023-04-25T01:14:13;18.33;;;11.15;;
57746;SDS011;43580;44.014;20.466;2023-04-25T01:16:39;19.30;;;11.40;;
57746;SDS011;43580;44.014;20.466;2023-04-25T01:19:08;15.32;;;10.50;;
57746;SDS011;43580;44.014;20.466;2023-04-25T01:21:37;17.15;;;9.63;;
57746;SDS011;43580;44.014;20.466;2023-04-25T01:24:03;12.13;;;8.60;;
57746;SDS011;43580;44.014;20.466;2023-04-25T01:26:30;14.68;;;8.55;;
57746;SDS011;43580;44.014;20.466;2023-04-25T01:28:56;11.27;;;7.93;;
57746;SDS011;43580;44.014;20.466;2023-04-25T01:31:22;13.77;;;7.55;;
57746;SDS011;43580;44.014;20.466;2023-04-25T01:33:49;11.38;;;7.95;;
57746;SDS011;43580;44.014;20.466;2023-04-25T01:36:15;12.40;;;7.85;;
57746;SDS011;43580;44.014;20.466;2023-04-25T01:38:41;12.70;;;7.65;;
57746;SDS011;43580;44.014;20.466;2023-04-25T01:41:08;13.55;;;7.03;;
57746;SDS011;43580;44.014;20.466;2023-04-25T01:43:35;10.13;;;7.35;;
57746;SDS011;43580;44.014;20.466;2023-04-25T01:46:01;10.05;;;6.50;;
57746;SDS011;43580;44.014;20.466;2023-04-25T01:48:27;11.13;;;6.40;;
57746;SDS011;43580;44.014;20.466;2023-04-25T01:50:53;20.20;;;9.63;;
57746;SDS011;43580;44.014;20.466;2023-04-25T01:53:19;16.77;;;8.35;;
57746;SDS011;43580;44.014;20.466;2023-04-25T01:55:45;10.07;;;6.65;;
57746;SDS011;43580;44.014;20.466;2023-04-25T01:58:11;9.40;;;5.55;;
57746;SDS011;43580;44.014;20.466;2023-04-25T02:00:38;9.93;;;5.45;;
57746;SDS011;43580;44.014;20.466;2023-04-25T02:03:05;11.73;;;6.85;;
57746;SDS011;43580;44.014;20.466;2023-04-25T02:05:38;8.63;;;4.60;;
57746;SDS011;43580;44.014;20.466;2023-04-25T02:08:07;6.97;;;4.65;;
57746;SDS011;43580;44.014;20.466;2023-04-25T02:10:36;7.43;;;4.45;;
57746;SDS011;43580;44.014;20.466;2023-04-25T02:13:02;7.32;;;5.15;;
57746;SDS011;43580;44.014;20.466;2023-04-25T02:15:30;11.13;;;6.53;;
57746;SDS011;43580;44.014;20.466;2023-04-25T02:17:59;15.50;;;9.07;;
57746;SDS011;43580;44.014;20.466;2023-04-25T02:20:25;13.43;;;8.73;;
57746;SDS011;43580;44.014;20.466;2023-04-25T02:22:51;14.73;;;8.60;;
57746;SDS011;43580;44.014;20.466;2023-04-25T02:25:18;13.20;;;7.55;;
57746;SDS011;43580;44.014;20.466;2023-04-25T02:27:45;12.63;;;6.63;;
57746;SDS011;43580;44.014;20.466;2023-04-25T02:30:14;11.18;;;6.13;;
57746;SDS011;43580;44.014;20.466;2023-04-25T02:32:40;8.77;;;6.10;;
57746;SDS011;43580;44.014;20.466;2023-04-25T02:35:09;11.35;;;7.20;;
57746;SDS011;43580;44.014;20.466;2023-04-25T02:37:36;9.10;;;6.50;;
57746;SDS011;43580;44.014;20.466;2023-04-25T02:40:02;10.02;;;6.22;;
57746;SDS011;43580;44.014;20.466;2023-04-25T02:42:29;7.50;;;5.53;;
57746;SDS011;43580;44.014;20.466;2023-04-25T02:44:55;8.38;;;6.05;;
57746;SDS011;43580;44.014;20.466;2023-04-25T02:47:21;10.38;;;5.75;;
57746;SDS011;43580;44.014;20.466;2023-04-25T02:49:47;5.93;;;4.13;;
57746;SDS011;43580;44.014;20.466;2023-04-25T02:52:16;4.53;;;3.20;;
57746;SDS011;43580;44.014;20.466;2023-04-25T02:54:42;6.15;;;3.97;;
57746;SDS011;43580;44.014;20.466;2023-04-25T02:57:08;7.15;;;4.40;;
57746;SDS011;43580;44.014;20.466;2023-04-25T02:59:34;6.93;;;4.97;;
57746;SDS011;43580;44.014;20.466;2023-04-25T03:02:00;6.50;;;4.65;;
57746;SDS011;43580;44.014;20.466;2023-04-25T03:04:26;7.65;;;5.78;;
57746;SDS011;43580;44.014;20.466;2023-04-25T03:06:53;11.98;;;7.75;;
57746;SDS011;43580;44.014;20.466;2023-04-25T03:09:19;10.60;;;6.88;;
57746;SDS011;43580;44.014;20.466;2023-04-25T03:11:45;8.98;;;5.30;;
57746;SDS011;43580;44.014;20.466;2023-04-25T03:14:12;9.55;;;6.07;;
57746;SDS011;43580;44.014;20.466;2023-04-25T03:16:38;7.25;;;4.97;;
57746;SDS011;43580;44.014;20.466;2023-04-25T03:19:04;11.05;;;4.90;;
57746;SDS011;43580;44.014;20.466;2023-04-25T03:21:31;11.02;;;5.18;;
57746;SDS011;43580;44.014;20.466;2023-04-25T03:23:57;8.32;;;5.50;;
57746;SDS011;43580;44.014;20.466;2023-04-25T03:26:24;11.57;;;5.90;;
57746;SDS011;43580;44.014;20.466;2023-04-25T03:28:50;10.63;;;5.05;;
57746;SDS011;43580;44.014;20.466;2023-04-25T03:31:16;9.65;;;6.60;;
57746;SDS011;43580;44.014;20.466;2023-04-25T03:33:42;10.20;;;8.18;;
57746;SDS011;43580;44.014;20.466;2023-04-25T03:36:08;10.68;;;8.30;;
57746;SDS011;43580;44.014;20.466;2023-04-25T03:38:34;17.08;;;11.15;;
57746;SDS011;43580;44.014;20.466;2023-04-25T03:41:03;18.55;;;14.57;;
57746;SDS011;43580;44.014;20.466;2023-04-25T03:43:31;13.20;;;10.93;;
57746;SDS011;43580;44.014;20.466;2023-04-25T03:45:57;12.77;;;10.10;;
57746;SDS011;43580;44.014;20.466;2023-04-25T03:48:24;12.25;;;8.77;;
57746;SDS011;43580;44.014;20.466;2023-04-25T03:50:51;11.68;;;8.40;;
57746;SDS011;43580;44.014;20.466;2023-04-25T03:53:19;10.70;;;7.65;;
57746;SDS011;43580;44.014;20.466;2023-04-25T03:55:45;12.18;;;8.93;;
57746;SDS011;43580;44.014;20.466;2023-04-25T03:58:11;12.27;;;10.27;;
57746;SDS011;43580;44.014;20.466;2023-04-25T04:00:38;13.77;;;9.20;;
57746;SDS011;43580;44.014;20.466;2023-04-25T04:03:06;10.88;;;7.35;;
57746;SDS011;43580;44.014;20.466;2023-04-25T04:05:32;12.77;;;7.88;;
57746;SDS011;43580;44.014;20.466;2023-04-25T04:07:58;14.18;;;7.72;;
57746;SDS011;43580;44.014;20.466;2023-04-25T04:10:24;8.55;;;5.88;;
57746;SDS011;43580;44.014;20.466;2023-04-25T04:12:51;10.13;;;6.57;;
57746;SDS011;43580;44.014;20.466;2023-04-25T04:15:17;7.53;;;5.85;;
57746;SDS011;43580;44.014;20.466;2023-04-25T04:17:43;10.60;;;6.90;;
57746;SDS011;43580;44.014;20.466;2023-04-25T04:20:09;9.75;;;6.72;;
57746;SDS011;43580;44.014;20.466;2023-04-25T04:22:36;11.73;;;8.32;;
57746;SDS011;43580;44.014;20.466;2023-04-25T04:25:02;22.13;;;19.80;;
57746;SDS011;43580;44.014;20.466;2023-04-25T04:27:29;22.73;;;18.02;;
57746;SDS011;43580;44.014;20.466;2023-04-25T04:29:55;19.48;;;15.55;;
57746;SDS011;43580;44.014;20.466;2023-04-25T04:32:22;15.70;;;12.45;;
57746;SDS011;43580;44.014;20.466;2023-04-25T04:34:49;17.13;;;12.55;;
57746;SDS011;43580;44.014;20.466;2023-04-25T04:37:15;17.85;;;12.48;;
57746;SDS011;43580;44.014;20.466;2023-04-25T04:39:41;17.23;;;9.50;;
57746;SDS011;43580;44.014;20.466;2023-04-25T04:42:07;15.38;;;11.13;;
57746;SDS011;43580;44.014;20.466;2023-04-25T04:44:33;15.52;;;10.55;;
57746;SDS011;43580;44.014;20.466;2023-04-25T04:47:04;17.98;;;10.93;;
57746;SDS011;43580;44.014;20.466;2023-04-25T04:49:30;16.23;;;12.07;;
57746;SDS011;43580;44.014;20.466;2023-04-25T04:51:56;16.42;;;11.68;;
57746;SDS011;43580;44.014;20.466;2023-04-25T04:54:25;94.95;;;47.83;;
57746;SDS011;43580;44.014;20.466;2023-04-25T04:56:52;28.05;;;17.27;;
57746;SDS011;43580;44.014;20.466;2023-04-25T04:59:18;23.58;;;13.48;;
57746;SDS011;43580;44.014;20.466;2023-04-25T05:01:46;100.65;;;50.75;;
57746;SDS011;43580;44.014;20.466;2023-04-25T05:04:12;76.00;;;38.33;;
57746;SDS011;43580;44.014;20.466;2023-04-25T05:06:38;20.65;;;13.63;;
57746;SDS011;43580;44.014;20.466;2023-04-25T05:09:05;20.48;;;14.05;;
57746;SDS011;43580;44.014;20.466;2023-04-25T05:11:31;18.80;;;11.50;;
57746;SDS011;43580;44.014;20.466;2023-04-25T05:13:57;11.25;;;8.35;;
57746;SDS011;43580;44.014;20.466;2023-04-25T05:16:23;16.33;;;11.00;;
57746;SDS011;43580;44.014;20.466;2023-04-25T05:18:52;20.30;;;13.85;;
57746;SDS011;43580;44.014;20.466;2023-04-25T05:21:20;13.60;;;10.13;;
57746;SDS011;43580;44.014;20.466;2023-04-25T05:23:47;19.48;;;14.15;;
57746;SDS011;43580;44.014;20.466;2023-04-25T05:26:13;30.48;;;22.58;;
57746;SDS011;43580;44.014;20.466;2023-04-25T05:28:41;25.98;;;19.25;;
57746;SDS011;43580;44.014;20.466;2023-04-25T05:31:09;25.25;;;14.90;;
57746;SDS011;43580;44.014;20.466;2023-04-25T05:33:35;18.02;;;12.45;;
57746;SDS011;43580;44.014;20.466;2023-04-25T05:36:01;33.08;;;21.10;;
57746;SDS011;43580;44.014;20.466;2023-04-25T05:38:27;15.73;;;11.07;;
57746;SDS011;43580;44.014;20.466;2023-04-25T05:40:54;15.18;;;9.73;;
57746;SDS011;43580;44.014;20.466;2023-04-25T05:43:20;18.23;;;10.00;;
57746;SDS011;43580;44.014;20.466;2023-04-25T05:45:46;18.52;;;8.10;;
57746;SDS011;43580;44.014;20.466;2023-04-25T05:48:12;13.93;;;6.57;;
57746;SDS011;43580;44.014;20.466;2023-04-25T05:50:38;14.77;;;9.45;;
57746;SDS011;43580;44.014;20.466;2023-04-25T05:53:04;11.10;;;6.15;;
57746;SDS011;43580;44.014;20.466;2023-04-25T05:55:31;6.75;;;4.32;;
57746;SDS011;43580;44.014;20.466;2023-04-25T05:57:59;12.98;;;5.40;;
57746;SDS011;43580;44.014;20.466;2023-04-25T06:00:28;6.63;;;3.13;;
57746;SDS011;43580;44.014;20.466;2023-04-25T06:02:56;12.07;;;6.20;;
57746;SDS011;43580;44.014;20.466;2023-04-25T06:05:23;9.30;;;4.75;;
57746;SDS011;43580;44.014;20.466;2023-04-25T06:07:49;5.47;;;2.95;;
57746;SDS011;43580;44.014;20.466;2023-04-25T06:10:15;2.67;;;1.75;;
57746;SDS011;43580;44.014;20.466;2023-04-25T06:12:41;2.72;;;1.58;;
57746;SDS011;43580;44.014;20.466;2023-04-25T06:15:07;3.72;;;2.30;;
57746;SDS011;43580;44.014;20.466;2023-04-25T06:17:33;3.67;;;2.45;;
57746;SDS011;43580;44.014;20.466;2023-04-25T06:20:00;4.53;;;2.65;;
57746;SDS011;43580;44.014;20.466;2023-04-25T06:22:27;16.45;;;10.05;;
57746;SDS011;43580;44.014;20.466;2023-04-25T06:24:53;6.63;;;2.97;;
57746;SDS011;43580;44.014;20.466;2023-04-25T06:27:22;4.60;;;3.20;;
57746;SDS011;43580;44.014;20.466;2023-04-25T06:29:48;5.05;;;3.53;;
57746;SDS011;43580;44.014;20.466;2023-04-25T06:32:14;6.53;;;3.63;;
57746;SDS011;43580;44.014;20.466;2023-04-25T06:34:40;4.72;;;2.75;;
57746;SDS011;43580;44.014;20.466;2023-04-25T06:37:06;5.18;;;3.50;;
57746;SDS011;43580;44.014;20.466;2023-04-25T06:39:32;4.90;;;3.20;;
57746;SDS011;43580;44.014;20.466;2023-04-25T06:41:58;6.30;;;4.10;;
57746;SDS011;43580;44.014;20.466;2023-04-25T06:44:24;4.57;;;2.40;;
57746;SDS011;43580;44.014;20.466;2023-04-25T06:46:54;5.30;;;3.45;;
57746;SDS011;43580;44.014;20.466;2023-04-25T06:49:20;4.60;;;3.40;;
57746;SDS011;43580;44.014;20.466;2023-04-25T06:51:46;3.78;;;2.60;;
57746;SDS011;43580;44.014;20.466;2023-04-25T06:54:13;8.60;;;3.50;;
57746;SDS011;43580;44.014;20.466;2023-04-25T06:56:39;3.15;;;2.28;;
57746;SDS011;43580;44.014;20.466;2023-04-25T06:59:05;4.82;;;2.97;;
57746;SDS011;43580;44.014;20.466;2023-04-25T07:01:31;3.28;;;2.42;;
57746;SDS011;43580;44.014;20.466;2023-04-25T07:04:00;3.28;;;2.38;;
57746;SDS011;43580;44.014;20.466;2023-04-25T07:06:26;3.63;;;2.25;;
57746;SDS011;43580;44.014;20.466;2023-04-25T07:08:53;4.13;;;2.70;;
57746;SDS011;43580;44.014;20.466;2023-04-25T07:11:19;3.65;;;2.63;;
57746;SDS011;43580;44.014;20.466;2023-04-25T07:13:45;2.75;;;1.77;;
57746;SDS011;43580;44.014;20.466;2023-04-25T07:16:11;8.27;;;3.92;;
57746;SDS011;43580;44.014;20.466;2023-04-25T07:18:42;5.85;;;4.40;;
57746;SDS011;43580;44.014;20.466;2023-04-25T07:21:09;5.22;;;2.55;;
57746;SDS011;43580;44.014;20.466;2023-04-25T07:23:35;6.80;;;2.70;;
57746;SDS011;43580;44.014;20.466;2023-04-25T07:26:02;8.32;;;4.10;;
57746;SDS011;43580;44.014;20.466;2023-04-25T07:28:28;4.78;;;2.50;;
57746;SDS011;43580;44.014;20.466;2023-04-25T07:30:54;3.80;;;2.83;;
57746;SDS011;43580;44.014;20.466;2023-04-25T07:33:23;3.65;;;2.63;;
57746;SDS011;43580;44.014;20.466;2023-04-25T07:35:49;4.82;;;2.65;;
57746;SDS011;43580;44.014;20.466;2023-04-25T07:38:15;5.30;;;3.38;;
57746;SDS011;43580;44.014;20.466;2023-04-25T07:40:41;7.38;;;4.45;;
57746;SDS011;43580;44.014;20.466;2023-04-25T07:43:07;5.72;;;3.60;;
57746;SDS011;43580;44.014;20.466;2023-04-25T07:45:33;8.27;;;4.57;;
57746;SDS011;43580;44.014;20.466;2023-04-25T07:47:59;7.63;;;4.90;;
57746;SDS011;43580;44.014;20.466;2023-04-25T07:50:26;8.35;;;4.07;;
57746;SDS011;43580;44.014;20.466;2023-04-25T07:52:52;7.85;;;4.10;;
57746;SDS011;43580;44.014;20.466;2023-04-25T07:55:18;7.72;;;5.32;;
57746;SDS011;43580;44.014;20.466;2023-04-25T07:57:46;6.15;;;4.60;;
57746;SDS011;43580;44.014;20.466;2023-04-25T08:00:13;6.07;;;3.88;;
57746;SDS011;43580;44.014;20.466;2023-04-25T08:02:39;5.32;;;4.32;;
57746;SDS011;43580;44.014;20.466;2023-04-25T08:05:06;6.45;;;3.90;;
57746;SDS011;43580;44.014;20.466;2023-04-25T08:07:33;13.82;;;8.25;;
57746;SDS011;43580;44.014;20.466;2023-04-25T08:10:00;29.70;;;18.60;;
57746;SDS011;43580;44.014;20.466;2023-04-25T08:12:28;6.85;;;4.05;;
57746;SDS011;43580;44.014;20.466;2023-04-25T08:14:54;12.77;;;6.75;;
57746;SDS011;43580;44.014;20.466;2023-04-25T08:17:20;16.33;;;9.15;;
57746;SDS011;43580;44.014;20.466;2023-04-25T08:19:46;9.85;;;6.07;;
57746;SDS011;43580;44.014;20.466;2023-04-25T08:22:12;10.48;;;5.57;;
57746;SDS011;43580;44.014;20.466;2023-04-25T08:24:39;13.52;;;8.48;;
57746;SDS011;43580;44.014;20.466;2023-04-25T08:27:08;13.13;;;7.22;;
57746;SDS011;43580;44.014;20.466;2023-04-25T08:29:37;17.90;;;8.60;;
57746;SDS011;43580;44.014;20.466;2023-04-25T08:32:03;10.63;;;5.00;;
57746;SDS011;43580;44.014;20.466;2023-04-25T08:34:29;14.43;;;7.70;;
57746;SDS011;43580;44.014;20.466;2023-04-25T08:36:55;7.32;;;3.40;;
57746;SDS011;43580;44.014;20.466;2023-04-25T08:39:21;8.43;;;3.55;;
57746;SDS011;43580;44.014;20.466;2023-04-25T08:41:47;6.82;;;3.95;;
57746;SDS011;43580;44.014;20.466;2023-04-25T08:44:13;5.57;;;3.30;;
57746;SDS011;43580;44.014;20.466;2023-04-25T08:46:42;6.00;;;4.05;;
57746;SDS011;43580;44.014;20.466;2023-04-25T08:49:14;7.82;;;3.65;;
57746;SDS011;43580;44.014;20.466;2023-04-25T08:51:43;12.38;;;6.47;;
57746;SDS011;43580;44.014;20.466;2023-04-25T08:54:12;7.20;;;3.38;;
57746;SDS011;43580;44.014;20.466;2023-04-25T08:56:44;12.13;;;8.07;;
57746;SDS011;43580;44.014;20.466;2023-04-25T08:59:11;9.65;;;3.97;;
57746;SDS011;43580;44.014;20.466;2023-04-25T09:01:37;7.53;;;3.50;;
57746;SDS011;43580;44.014;20.466;2023-04-25T09:04:03;8.98;;;6.13;;
57746;SDS011;43580;44.014;20.466;2023-04-25T09:06:30;7.53;;;4.30;;
57746;SDS011;43580;44.014;20.466;2023-04-25T09:09:03;5.20;;;3.53;;
57746;SDS011;43580;44.014;20.466;2023-04-25T09:11:30;8.77;;;3.53;;
57746;SDS011;43580;44.014;20.466;2023-04-25T09:14:15;11.80;;;7.63;;
57746;SDS011;43580;44.014;20.466;2023-04-25T09:16:56;12.40;;;4.75;;
57746;SDS011;43580;44.014;20.466;2023-04-25T09:19:25;9.70;;;4.07;;
57746;SDS011;43580;44.014;20.466;2023-04-25T09:21:54;9.07;;;3.65;;
57746;SDS011;43580;44.014;20.466;2023-04-25T09:27:21;11.15;;;4.85;;
57746;SDS011;43580;44.014;20.466;2023-04-25T09:29:48;9.52;;;3.65;;
57746;SDS011;43580;44.014;20.466;2023-04-25T09:32:22;9.68;;;6.10;;
57746;SDS011;43580;44.014;20.466;2023-04-25T09:37:21;5.57;;;3.50;;
57746;SDS011;43580;44.014;20.466;2023-04-25T09:39:48;16.40;;;7.97;;
57746;SDS011;43580;44.014;20.466;2023-04-25T09:42:15;13.68;;;5.28;;
57746;SDS011;43580;44.014;20.466;2023-04-25T09:44:42;8.75;;;4.07;;
57746;SDS011;43580;44.014;20.466;2023-04-25T09:47:10;5.13;;;2.38;;
57746;SDS011;43580;44.014;20.466;2023-04-25T09:49:38;5.63;;;4.00;;
57746;SDS011;43580;44.014;20.466;2023-04-25T09:52:05;5.53;;;2.30;;
57746;SDS011;43580;44.014;20.466;2023-04-25T09:54:31;5.95;;;3.00;;
57746;SDS011;43580;44.014;20.466;2023-04-25T09:56:57;7.95;;;2.75;;
57746;SDS011;43580;44.014;20.466;2023-04-25T09:59:27;6.05;;;3.40;;
57746;SDS011;43580;44.014;20.466;2023-04-25T10:01:54;6.80;;;2.92;;
57746;SDS011;43580;44.014;20.466;2023-04-25T10:04:25;5.15;;;2.05;;
57746;SDS011;43580;44.014;20.466;2023-04-25T10:06:53;3.83;;;1.85;;
57746;SDS011;43580;44.014;20.466;2023-04-25T10:09:23;5.53;;;3.33;;
57746;SDS011;43580;44.014;20.466;2023-04-25T10:11:51;7.68;;;5.20;;
57746;SDS011;43580;44.014;20.466;2023-04-25T10:14:20;5.72;;;3.17;;
57746;SDS011;43580;44.014;20.466;2023-04-25T10:16:47;6.63;;;2.75;;
57746;SDS011;43580;44.014;20.466;2023-04-25T10:19:13;7.47;;;2.40;;
57746;SDS011;43580;44.014;20.466;2023-04-25T10:21:48;3.70;;;1.88;;
57746;SDS011;43580;44.014;20.466;2023-04-25T10:24:15;3.55;;;1.70;;
57746;SDS011;43580;44.014;20.466;2023-04-25T10:26:41;6.00;;;2.78;;
57746;SDS011;43580;44.014;20.466;2023-04-25T10:29:08;5.25;;;3.13;;
57746;SDS011;43580;44.014;20.466;2023-04-25T10:31:37;6.93;;;2.92;;
57746;SDS011;43580;44.014;20.466;2023-04-25T10:34:10;6.38;;;3.58;;
57746;SDS011;43580;44.014;20.466;2023-04-25T10:36:36;6.28;;;3.03;;
57746;SDS011;43580;44.014;20.466;2023-04-25T10:39:05;10.43;;;5.32;;
57746;SDS011;43580;44.014;20.466;2023-04-25T10:41:55;6.32;;;2.50;;
57746;SDS011;43580;44.014;20.466;2023-04-25T10:44:21;7.07;;;3.83;;
57746;SDS011;43580;44.014;20.466;2023-04-25T10:46:47;12.38;;;4.82;;
57746;SDS011;43580;44.014;20.466;2023-04-25T10:49:29;7.55;;;4.75;;
57746;SDS011;43580;44.014;20.466;2023-04-25T10:52:14;9.70;;;4.88;;
57746;SDS011;43580;44.014;20.466;2023-04-25T10:54:54;6.88;;;3.65;;
57746;SDS011;43580;44.014;20.466;2023-04-25T10:57:30;6.93;;;4.43;;
57746;SDS011;43580;44.014;20.466;2023-04-25T11:00:00;11.45;;;7.00;;
57746;SDS011;43580;44.014;20.466;2023-04-25T11:02:30;6.22;;;4.07;;
57746;SDS011;43580;44.014;20.466;2023-04-25T11:04:56;10.25;;;3.78;;
57746;SDS011;43580;44.014;20.466;2023-04-25T11:10:03;7.30;;;4.20;;
57746;SDS011;43580;44.014;20.466;2023-04-25T11:12:30;10.00;;;3.80;;
57746;SDS011;43580;44.014;20.466;2023-04-25T11:15:03;13.85;;;3.53;;
57746;SDS011;43580;44.014;20.466;2023-04-25T11:17:29;11.30;;;6.22;;
57746;SDS011;43580;44.014;20.466;2023-04-25T11:19:55;9.07;;;6.60;;
57746;SDS011;43580;44.014;20.466;2023-04-25T11:22:22;8.77;;;5.30;;
57746;SDS011;43580;44.014;20.466;2023-04-25T11:24:49;6.72;;;4.82;;
57746;SDS011;43580;44.014;20.466;2023-04-25T11:27:17;9.43;;;5.55;;
57746;SDS011;43580;44.014;20.466;2023-04-25T11:29:46;7.15;;;4.82;;
57746;SDS011;43580;44.014;20.466;2023-04-25T11:32:14;6.38;;;4.45;;
57746;SDS011;43580;44.014;20.466;2023-04-25T11:34:42;6.60;;;4.38;;
57746;SDS011;43580;44.014;20.466;2023-04-25T11:37:08;6.20;;;4.72;;
57746;SDS011;43580;44.014;20.466;2023-04-25T11:39:36;5.68;;;3.85;;
57746;SDS011;43580;44.014;20.466;2023-04-25T11:42:05;5.70;;;4.78;;
57746;SDS011;43580;44.014;20.466;2023-04-25T11:44:31;9.52;;;6.60;;
57746;SDS011;43580;44.014;20.466;2023-04-25T11:46:57;7.82;;;4.50;;
57746;SDS011;43580;44.014;20.466;2023-04-25T11:49:23;10.15;;;4.47;;
57746;SDS011;43580;44.014;20.466;2023-04-25T11:51:49;7.95;;;5.22;;
57746;SDS011;43580;44.014;20.466;2023-04-25T11:54:16;4.57;;;3.17;;
57746;SDS011;43580;44.014;20.466;2023-04-25T11:56:43;6.05;;;4.22;;
57746;SDS011;43580;44.014;20.466;2023-04-25T11:59:09;8.25;;;4.13;;
57746;SDS011;43580;44.014;20.466;2023-04-25T12:01:38;8.85;;;6.07;;
57746;SDS011;43580;44.014;20.466;2023-04-25T12:06:37;4.82;;;3.30;;
57746;SDS011;43580;44.014;20.466;2023-04-25T12:09:07;5.18;;;3.83;;
57746;SDS011;43580;44.014;20.466;2023-04-25T12:11:40;6.13;;;3.47;;
57746;SDS011;43580;44.014;20.466;2023-04-25T12:14:07;5.35;;;2.85;;
57746;SDS011;43580;44.014;20.466;2023-04-25T12:16:43;4.45;;;2.38;;
57746;SDS011;43580;44.014;20.466;2023-04-25T12:19:15;7.88;;;2.88;;
57746;SDS011;43580;44.014;20.466;2023-04-25T12:21:42;5.65;;;2.70;;
57746;SDS011;43580;44.014;20.466;2023-04-25T12:29:16;11.00;;;4.00;;
57746;SDS011;43580;44.014;20.466;2023-04-25T12:31:43;4.80;;;2.90;;
57746;SDS011;43580;44.014;20.466;2023-04-25T12:34:09;7.35;;;3.83;;
57746;SDS011;43580;44.014;20.466;2023-04-25T12:36:36;9.10;;;3.72;;
57746;SDS011;43580;44.014;20.466;2023-04-25T12:39:02;7.60;;;3.50;;
57746;SDS011;43580;44.014;20.466;2023-04-25T12:41:29;8.07;;;4.07;;
57746;SDS011;43580;44.014;20.466;2023-04-25T12:43:55;12.57;;;6.20;;
57746;SDS011;43580;44.014;20.466;2023-04-25T12:46:21;6.93;;;3.53;;
57746;SDS011;43580;44.014;20.466;2023-04-25T12:48:48;7.32;;;3.47;;
57746;SDS011;43580;44.014;20.466;2023-04-25T12:51:14;12.73;;;4.65;;
57746;SDS011;43580;44.014;20.466;2023-04-25T12:53:40;4.55;;;3.20;;
57746;SDS011;43580;44.014;20.466;2023-04-25T12:56:07;9.73;;;6.03;;
57746;SDS011;43580;44.014;20.466;2023-04-25T12:58:38;14.95;;;8.00;;
57746;SDS011;43580;44.014;20.466;2023-04-25T13:01:05;13.30;;;8.80;;
57746;SDS011;43580;44.014;20.466;2023-04-25T13:03:32;11.15;;;5.68;;
57746;SDS011;43580;44.014;20.466;2023-04-25T13:05:59;5.28;;;3.72;;
57746;SDS011;43580;44.014;20.466;2023-04-25T13:08:26;7.45;;;4.53;;
57746;SDS011;43580;44.014;20.466;2023-04-25T13:10:52;15.73;;;10.40;;
57746;SDS011;43580;44.014;20.466;2023-04-25T13:13:18;14.15;;;8.98;;
57746;SDS011;43580;44.014;20.466;2023-04-25T13:15:45;10.80;;;7.15;;
57746;SDS011;43580;44.014;20.466;2023-04-25T13:18:11;13.57;;;9.40;;
57746;SDS011;43580;44.014;20.466;2023-04-25T13:20:37;12.95;;;9.10;;
57746;SDS011;43580;44.014;20.466;2023-04-25T13:23:03;13.57;;;8.05;;
57746;SDS011;43580;44.014;20.466;2023-04-25T13:25:29;11.70;;;6.65;;
57746;SDS011;43580;44.014;20.466;2023-04-25T13:27:55;9.38;;;6.97;;
57746;SDS011;43580;44.014;20.466;2023-04-25T13:30:22;10.43;;;7.82;;
57746;SDS011;43580;44.014;20.466;2023-04-25T13:32:48;9.13;;;6.47;;
57746;SDS011;43580;44.014;20.466;2023-04-25T13:35:14;7.13;;;5.68;;
57746;SDS011;43580;44.014;20.466;2023-04-25T13:37:42;5.70;;;4.30;;
57746;SDS011;43580;44.014;20.466;2023-04-25T13:40:09;9.95;;;4.78;;
57746;SDS011;43580;44.014;20.466;2023-04-25T13:42:39;7.47;;;5.18;;
57746;SDS011;43580;44.014;20.466;2023-04-25T13:45:06;8.00;;;5.13;;
57746;SDS011;43580;44.014;20.466;2023-04-25T13:47:32;10.10;;;8.35;;
57746;SDS011;43580;44.014;20.466;2023-04-25T13:49:58;7.60;;;5.00;;
57746;SDS011;43580;44.014;20.466;2023-04-25T13:52:25;8.68;;;5.72;;
57746;SDS011;43580;44.014;20.466;2023-04-25T13:54:52;8.02;;;5.32;;
57746;SDS011;43580;44.014;20.466;2023-04-25T13:57:18;10.75;;;7.15;;
57746;SDS011;43580;44.014;20.466;2023-04-25T13:59:44;11.70;;;6.90;;
57746;SDS011;43580;44.014;20.466;2023-04-25T14:02:11;10.93;;;6.22;;
57746;SDS011;43580;44.014;20.466;2023-04-25T14:04:37;7.90;;;5.28;;
57746;SDS011;43580;44.014;20.466;2023-04-25T14:07:03;9.68;;;8.60;;
57746;SDS011;43580;44.014;20.466;2023-04-25T14:09:30;13.15;;;7.72;;
57746;SDS011;43580;44.014;20.466;2023-04-25T14:11:59;9.30;;;6.20;;
57746;SDS011;43580;44.014;20.466;2023-04-25T14:14:25;9.75;;;5.18;;
57746;SDS011;43580;44.014;20.466;2023-04-25T14:16:54;7.13;;;4.97;;
57746;SDS011;43580;44.014;20.466;2023-04-25T14:19:21;6.57;;;3.75;;
57746;SDS011;43580;44.014;20.466;2023-04-25T14:21:48;6.22;;;4.15;;
57746;SDS011;43580;44.014;20.466;2023-04-25T14:24:14;10.00;;;6.63;;
57746;SDS011;43580;44.014;20.466;2023-04-25T14:26:40;34.08;;;18.75;;
57746;SDS011;43580;44.014;20.466;2023-04-25T14:29:07;14.48;;;7.22;;
57746;SDS011;43580;44.014;20.466;2023-04-25T14:31:34;12.75;;;7.70;;
57746;SDS011;43580;44.014;20.466;2023-04-25T14:34:00;8.35;;;5.22;;
57746;SDS011;43580;44.014;20.466;2023-04-25T14:36:27;14.95;;;7.93;;
57746;SDS011;43580;44.014;20.466;2023-04-25T14:38:53;6.43;;;3.92;;
57746;SDS011;43580;44.014;20.466;2023-04-25T14:41:20;9.70;;;5.32;;